Time;durP1;ratioP1;P1;durP2;ratioP2;P2;SDS_P1;SDS_P2;PMS_P1;PMS_P2;Temp;Humidity;BMP_temperature;BMP_pressure;BME280_temperature;BME280_humidity;BME280_pressure;Samples;Min_cycle;Max_cycle;Signal;HPM_P1;HPM_P2
2021/04/21 00:01:01;;;;;;;;;;;;;;;2.83;100.00;100677.72;5093760;28;19924;-70
2021/04/21 00:03:28;;;;;;;;;;;;;;;2.81;100.00;100679.59;5093299;28;19931;-70
2021/04/21 00:05:54;;;;;;;;;;;;;;;2.76;100.00;100668.22;5093603;28;19924;-70
2021/04/21 00:08:20;;;;;;;;;;;;;;;2.76;100.00;100670.91;5093569;28;19928;-70
2021/04/21 00:10:48;;;;;;;;;;;;;;;2.75;100.00;100666.47;5093753;28;19924;-70
2021/04/21 00:13:15;;;;;;;;;;;;;;;2.73;100.00;100663.03;5092841;28;19928;-70
2021/04/21 00:15:41;;;;;;;;;;;;;;;2.72;100.00;100652.38;5093270;28;19947;-70
2021/04/21 00:18:07;;;;;;;;;;;;;;;2.65;100.00;100660.72;5093265;28;20478;-70
2021/04/21 00:20:33;;;;;;;;;;;;;;;2.58;100.00;100658.41;5092753;28;19928;-70
2021/04/21 00:23:07;;;;;;;;;;;;;;;2.48;100.00;100669.56;5093201;28;20283;-70
2021/04/21 00:25:33;;;;;;;;;;;;;;;2.46;100.00;100663.44;5092970;28;19931;-70
2021/04/21 00:28:01;;;;;;;;;;;;;;;2.45;100.00;100664.38;5093442;28;19959;-70
2021/04/21 00:30:29;;;;;;;;;;;;;;;2.37;100.00;100665.69;5093134;28;19931;-70
2021/04/21 00:32:56;;;;;;;;;;;;;;;2.34;100.00;100670.25;5092734;28;19928;-70
2021/04/21 00:35:23;;;;;;;;;;;;;;;2.34;100.00;100659.53;5092285;28;19925;-71
2021/04/21 00:37:50;;;;;;;;;;;;;;;2.36;100.00;100664.81;5093412;28;20327;-70
2021/04/21 00:40:18;;;;;;;;;;;;;;;2.34;100.00;100661.34;5075155;28;19982;-70
2021/04/21 00:42:49;;;;;;;;;;;;;;;2.31;100.00;100653.44;5074367;28;19970;-70
2021/04/21 00:45:16;;;;;;;;;;;;;;;2.17;100.00;100657.66;5092858;28;19924;-69
2021/04/21 00:47:49;;;;;;;;;;;;;;;2.12;100.00;100657.00;5092834;28;19924;-70
2021/04/21 00:50:17;;;;;;;;;;;;;;;2.12;100.00;100657.00;5093157;28;19970;-70
2021/04/21 00:52:47;;;;;;;;;;;;;;;2.12;100.00;100657.00;5074147;28;19955;-70
2021/04/21 00:55:16;;;;;;;;;;;;;;;2.09;100.00;100650.94;5092126;28;19928;-70
2021/04/21 00:57:45;;;;;;;;;;;;;;;2.00;100.00;100646.88;5074804;28;20010;-70
2021/04/21 01:00:13;;;;;;;;;;;;;;;1.98;100.00;100657.66;5092395;28;19924;-70
2021/04/21 01:03:07;;;;;;;;;;;;;;;1.84;100.00;100650.28;5074364;28;19963;-70
2021/04/21 01:05:35;;;;;;;;;;;;;;;1.76;100.00;100648.88;5073952;28;19951;-70
2021/04/21 01:08:05;;;;;;;;;;;;;;;1.71;100.00;100645.53;5074553;28;19967;-71
2021/04/21 01:10:34;;;;;;;;;;;;;;;1.67;100.00;100651.03;5074348;28;20303;-70
2021/04/21 01:13:01;;;;;;;;;;;;;;;1.65;100.00;100650.22;5074067;28;19955;-70
2021/04/21 01:15:29;;;;;;;;;;;;;;;1.65;100.00;100649.38;5092488;28;20298;-69
2021/04/21 01:17:56;;;;;;;;;;;;;;;1.66;100.00;100645.75;5074510;28;19924;-70
2021/04/21 01:20:28;;;;;;;;;;;;;;;1.65;100.00;100644.00;5092280;28;19932;-70
2021/04/21 01:23:12;;;;;;;;;;;;;;;1.61;100.00;100650.44;5092221;28;19931;-70
2021/04/21 01:25:41;;;;;;;;;;;;;;;1.59;100.00;100646.94;5093018;28;19999;-69
2021/04/21 01:28:10;;;;;;;;;;;;;;;1.57;100.00;100644.34;5094269;28;20469;-70
2021/04/21 01:30:37;;;;;;;;;;;;;;;1.52;100.00;100656.22;5093683;28;19986;-71
2021/04/21 01:33:03;;;;;;;;;;;;;;;1.49;100.00;100650.03;5092870;28;20330;-70
2021/04/21 01:35:29;;;;;;;;;;;;;;;1.52;100.00;100650.84;5091077;28;19931;-70
2021/04/21 01:37:58;;;;;;;;;;;;;;;1.53;100.00;100652.59;5092034;28;19971;-70
2021/04/21 01:40:26;;;;;;;;;;;;;;;1.52;100.00;100651.72;5091746;28;20387;-70
2021/04/21 01:42:52;;;;;;;;;;;;;;;1.55;100.00;100656.06;5091747;28;19986;-70
2021/04/21 01:45:21;;;;;;;;;;;;;;;1.49;100.00;100658.06;5091652;28;20464;-70
2021/04/21 01:47:47;;;;;;;;;;;;;;;1.49;100.00;100652.72;5073601;28;20446;-70
2021/04/21 01:50:14;;;;;;;;;;;;;;;1.49;100.00;100655.38;5091883;28;20019;-70
2021/04/21 01:52:58;;;;;;;;;;;;;;;1.47;100.00;100659.06;5091052;28;19928;-70
2021/04/21 01:55:39;;;;;;;;;;;;;;;1.45;100.00;100653.78;5091370;28;19970;-70
2021/04/21 01:58:23;;;;;;;;;;;;;;;1.42;100.00;100645.91;5091568;28;19931;-70
2021/04/21 02:00:51;;;;;;;;;;;;;;;1.43;100.00;100650.34;5091529;28;20383;-70
2021/04/21 02:03:19;;;;;;;;;;;;;;;1.45;100.00;100655.59;5091322;28;20015;-70
2021/04/21 02:05:53;;;;;;;;;;;;;;;1.48;100.00;100650.13;5091095;28;19927;-70
2021/04/21 02:08:23;;;;;;;;;;;;;;;1.48;100.00;100653.69;5091495;28;19977;-70
2021/04/21 02:10:57;;;;;;;;;;;;;;;1.42;100.00;100656.63;5091197;28;19970;-70
2021/04/21 02:13:29;;;;;;;;;;;;;;;1.39;100.00;100654.09;5090931;28;19931;-70
2021/04/21 02:16:22;;;;;;;;;;;;;;;1.32;100.00;100644.56;5091169;28;20387;-70
2021/04/21 02:18:59;;;;;;;;;;;;;;;1.28;100.00;100648.31;5054878;28;20019;-70
2021/04/21 02:21:26;;;;;;;;;;;;;;;1.31;100.00;100641.03;5091115;28;19932;-70
2021/04/21 02:23:56;;;;;;;;;;;;;;;1.28;100.00;100637.63;5091294;28;19935;-70
2021/04/21 02:26:26;;;;;;;;;;;;;;;1.31;100.00;100645.50;5090442;28;19927;-70
2021/04/21 02:28:56;;;;;;;;;;;;;;;1.26;100.00;100647.53;5091122;28;20437;-70
2021/04/21 02:31:23;;;;;;;;;;;;;;;1.23;100.00;100642.28;5091575;28;19928;-70
2021/04/21 02:33:53;;;;;;;;;;;;;;;1.20;100.00;100647.78;5091834;28;19924;-70
2021/04/21 02:36:23;;;;;;;;;;;;;;;1.16;100.00;100644.38;5074091;28;20486;-70
2021/04/21 02:38:54;;;;;;;;;;;;;;;1.11;100.00;100639.25;5091945;28;20398;-70
2021/04/21 02:41:21;;;;;;;;;;;;;;;1.11;100.00;100641.91;5090829;28;20452;-70
2021/04/21 02:43:55;;;;;;;;;;;;;;;1.13;100.00;100645.38;5094344;28;19924;-71
2021/04/21 02:46:23;;;;;;;;;;;;;;;1.14;100.00;100646.25;5094935;28;19946;-70
2021/04/21 02:49:08;;;;;;;;;;;;;;;1.12;100.00;100649.00;5095497;28;19930;-70
2021/04/21 02:51:41;;;;;;;;;;;;;;;1.09;100.00;100651.78;5094810;28;20419;-70
2021/04/21 02:54:09;;;;;;;;;;;;;;;1.11;100.00;100647.25;5095632;28;19928;-70
2021/04/21 02:56:39;;;;;;;;;;;;;;;1.13;100.00;100642.69;5096140;28;19950;-70
2021/04/21 02:59:09;;;;;;;;;;;;;;;1.17;100.00;100646.13;5094964;28;20370;-70
2021/04/21 03:01:40;;;;;;;;;;;;;;;1.14;100.00;100644.44;5094515;28;19924;-70
2021/04/21 03:04:09;;;;;;;;;;;;;;;1.15;100.00;100653.34;5076721;28;19967;-70
2021/04/21 03:06:38;;;;;;;;;;;;;;;1.15;100.00;100651.53;5094769;28;19924;-70
2021/04/21 03:09:05;;;;;;;;;;;;;;;1.17;100.00;100644.31;5094888;28;19993;-70
2021/04/21 03:11:31;;;;;;;;;;;;;;;1.16;100.00;100649.72;5094508;28;19935;-70
2021/04/21 03:14:01;;;;;;;;;;;;;;;1.16;100.00;100641.69;5095070;28;20343;-70
2021/04/21 03:16:29;;;;;;;;;;;;;;;1.19;100.00;100646.94;5094179;28;19928;-70
2021/04/21 03:18:55;;;;;;;;;;;;;;;1.16;100.00;100644.38;5094728;28;20410;-71
2021/04/21 03:21:24;;;;;;;;;;;;;;;1.12;100.00;100642.78;5094181;28;19924;-70
2021/04/21 03:23:53;;;;;;;;;;;;;;;1.17;100.00;100649.66;5094543;28;19977;-70
2021/04/21 03:26:21;;;;;;;;;;;;;;;1.16;100.00;100637.25;5094249;28;19967;-70
2021/04/21 03:28:49;;;;;;;;;;;;;;;1.22;100.00;100636.09;5094345;28;19924;-70
2021/04/21 03:31:16;;;;;;;;;;;;;;;1.21;100.00;100637.03;5094749;28;19924;-70
2021/04/21 03:33:45;;;;;;;;;;;;;;;1.17;100.00;100638.09;5093834;28;19964;-70
2021/04/21 03:36:13;;;;;;;;;;;;;;;1.09;100.00;100633.06;5093699;28;19931;-70
2021/04/21 03:38:39;;;;;;;;;;;;;;;1.06;100.00;100630.53;5094094;28;19928;-70
2021/04/21 03:41:06;;;;;;;;;;;;;;;1.03;100.00;100628.00;5094391;28;20018;-70
2021/04/21 03:43:32;;;;;;;;;;;;;;;0.98;100.00;100636.22;5093227;28;19970;-70
2021/04/21 03:45:59;;;;;;;;;;;;;;;1.01;100.00;100640.56;5093841;28;19928;-70
2021/04/21 03:48:24;;;;;;;;;;;;;;;0.98;100.00;100644.22;5094151;28;19924;-70
2021/04/21 03:50:52;;;;;;;;;;;;;;;0.97;100.00;100645.16;5093899;28;19959;-70
2021/04/21 03:53:19;;;;;;;;;;;;;;;0.98;100.00;100640.69;5093363;28;19932;-70
2021/04/21 03:55:45;;;;;;;;;;;;;;;0.91;100.00;100644.56;5075618;28;20020;-70
2021/04/21 03:58:13;;;;;;;;;;;;;;;0.86;100.00;100642.09;5093967;28;19963;-70
2021/04/21 04:00:40;;;;;;;;;;;;;;;0.85;100.00;100636.81;5094217;28;19982;-70
2021/04/21 04:03:08;;;;;;;;;;;;;;;0.83;100.00;100651.09;5092807;28;21264;-70
2021/04/21 04:05:38;;;;;;;;;;;;;;;0.82;100.00;100641.34;5093341;28;19961;-70
2021/04/21 04:08:08;;;;;;;;;;;;;;;0.83;100.00;100637.75;5093885;28;19924;-69
2021/04/21 04:10:35;;;;;;;;;;;;;;;0.80;100.00;100642.34;5093727;28;20406;-70
2021/04/21 04:13:03;;;;;;;;;;;;;;;0.81;100.00;100639.59;5074880;28;20006;-70
2021/04/21 04:15:30;;;;;;;;;;;;;;;0.78;100.00;100639.72;5092997;28;20402;-71
2021/04/21 04:17:58;;;;;;;;;;;;;;;0.79;100.00;100640.63;5093656;28;20019;-71
2021/04/21 04:20:24;;;;;;;;;;;;;;;0.90;100.00;100649.03;5075324;28;19928;-70
2021/04/21 04:22:51;;;;;;;;;;;;;;;0.95;100.00;100652.38;5092800;28;19946;-70
2021/04/21 04:25:18;;;;;;;;;;;;;;;0.95;100.00;100651.50;5092884;28;19968;-70
2021/04/21 04:27:44;;;;;;;;;;;;;;;1.00;100.00;100653.06;5093134;28;19931;-70
2021/04/21 04:30:11;;;;;;;;;;;;;;;1.07;100.00;100648.31;5075323;28;20466;-70
2021/04/21 04:32:40;;;;;;;;;;;;;;;1.14;100.00;100640.91;5092627;28;19971;-70
2021/04/21 04:35:06;;;;;;;;;;;;;;;1.21;100.00;100645.03;5092929;28;19928;-70
2021/04/21 04:37:33;;;;;;;;;;;;;;;1.35;100.00;100649.81;5092826;28;19924;-70
2021/04/21 04:40:00;;;;;;;;;;;;;;;1.49;100.00;100642.00;5093135;28;19928;-70
2021/04/21 04:42:27;;;;;;;;;;;;;;;1.65;100.00;100646.69;5092810;28;20081;-71
2021/04/21 04:44:54;;;;;;;;;;;;;;;1.76;100.00;100646.19;5092658;28;19931;-71
2021/04/21 04:47:22;;;;;;;;;;;;;;;1.87;100.00;100643.03;5074747;28;20360;-70
2021/04/21 04:49:52;;;;;;;;;;;;;;;2.07;100.00;100642.09;5092718;28;20010;-70
2021/04/21 04:52:19;;;;;;;;;;;;;;;2.29;100.00;100642.81;5092724;28;19977;-71
2021/04/21 04:54:46;;;;;;;;;;;;;;;2.47;100.00;100641.06;5092361;28;20417;-70
2021/04/21 04:57:17;;;;;;;;;;;;;;;2.65;100.00;100641.09;5092403;28;19924;-71
2021/04/21 04:59:46;;;;;;;;;;;;;;;2.83;100.00;100640.19;5088903;28;19931;-70
2021/04/21 05:02:13;;;;;;;;;;;;;;;3.00;100.00;100638.44;5090660;28;19966;-70
2021/04/21 05:04:46;;;;;;;;;;;;;;;3.20;100.00;100633.88;5082803;28;19967;-71
2021/04/21 05:07:15;;;;;;;;;;;;;;;3.46;100.00;100641.44;5091625;28;19932;-71
2021/04/21 05:09:42;;;;;;;;;;;;;;;3.69;100.00;100633.97;5091894;28;20024;-70
2021/04/21 05:12:10;;;;;;;;;;;;;;;3.90;100.00;100641.78;5092109;28;20385;-70
2021/04/21 05:14:37;;;;;;;;;;;;;;;4.04;100.00;100631.16;5091664;28;20007;-71
2021/04/21 05:17:12;;;;;;;;;;;;;;;4.19;100.00;100632.13;5073159;28;20304;-71
2021/04/21 05:20:01;;;;;;;;;;;;;;;4.37;100.00;100630.22;5082351;28;19960;-70
2021/04/21 05:22:45;;;;;;;;;;;;;;;4.59;100.00;100631.69;5091707;28;19960;-70
2021/04/21 05:25:32;;;;;;;;;;;;;;;4.82;100.00;100624.97;5091917;28;19954;-71
2021/04/21 05:28:28;;;;;;;;;;;;;;;5.10;100.00;100618.78;5091245;28;19924;-71
2021/04/21 05:31:13;;;;;;;;;;;;;;;5.45;100.00;100625.69;5091941;28;19924;-71
2021/04/21 05:34:06;;;;;;;;;;;;;;;5.82;100.00;100628.81;5090843;28;20294;-72
2021/04/21 05:36:53;;;;;;;;;;;;;;;6.24;100.00;100624.38;5091626;28;20042;-72
2021/04/21 05:39:37;;;;;;;;;;;;;;;6.75;100.00;100623.72;5054401;28;20046;-72
2021/04/21 05:42:36;;;;;;;;;;;;;;;7.27;100.00;100618.44;5091593;28;20416;-72
2021/04/21 05:45:21;;;;;;;;;;;;;;;7.91;100.00;100617.59;5090976;28;20398;-70
2021/04/21 05:48:13;;;;;;;;;;;;;;;8.44;100.00;100618.22;5091343;28;19939;-71
2021/04/21 05:50:52;;;;;;;;;;;;;;;8.97;100.00;100617.06;5067227;28;19974;-72
2021/04/21 05:53:43;;;;;;;;;;;;;;;9.40;100.00;100610.16;5072060;28;20039;-71
2021/04/21 05:56:27;;;;;;;;;;;;;;;9.69;100.00;100607.88;5074571;28;19924;-72
2021/04/21 05:59:09;;;;;;;;;;;;;;;10.17;100.00;100615.75;5091316;28;19974;-70
2021/04/21 06:01:36;;;;;;;;;;;;;;;10.46;100.00;100606.22;5090663;28;20019;-70
2021/04/21 06:04:03;;;;;;;;;;;;;;;10.50;100.00;100618.56;5089633;28;19924;-70
2021/04/21 06:06:29;;;;;;;;;;;;;;;10.41;100.00;100619.31;5089143;28;19928;-71
2021/04/21 06:08:55;;;;;;;;;;;;;;;10.78;100.00;100617.09;5091535;28;19978;-71
2021/04/21 06:11:22;;;;;;;;;;;;;;;10.72;100.00;100617.66;5090588;28;19963;-70
2021/04/21 06:13:51;;;;;;;;;;;;;;;10.99;100.00;100619.88;5090744;28;20331;-70
2021/04/21 06:16:18;;;;;;;;;;;;;;;11.30;100.00;100611.81;5090420;28;19931;-70
2021/04/21 06:18:44;;;;;;;;;;;;;;;11.53;98.90;100619.84;5090717;28;19989;-69
2021/04/21 06:21:18;;;;;;;;;;;;;;;11.70;97.38;100619.25;5085278;28;19963;-71
2021/04/21 06:23:44;;;;;;;;;;;;;;;11.88;97.00;100618.63;5090315;28;19960;-71
2021/04/21 06:26:10;;;;;;;;;;;;;;;12.16;95.58;100617.03;5090857;28;19943;-71
2021/04/21 06:28:36;;;;;;;;;;;;;;;12.51;91.58;100620.31;5090732;28;19970;-71
2021/04/21 06:31:03;;;;;;;;;;;;;;;12.38;88.03;100617.81;5090830;28;20023;-70
2021/04/21 06:33:31;;;;;;;;;;;;;;;12.65;89.02;100614.44;5089983;28;19928;-70
2021/04/21 06:35:57;;;;;;;;;;;;;;;12.54;84.17;100620.84;5089887;28;19924;-70
2021/04/21 06:38:26;;;;;;;;;;;;;;;12.56;87.17;100620.75;5090251;28;19925;-70
2021/04/21 06:40:52;;;;;;;;;;;;;;;12.60;84.70;100624.03;5090201;28;20001;-69
2021/04/21 06:43:22;;;;;;;;;;;;;;;13.02;84.40;100616.47;5090401;28;19924;-70
2021/04/21 06:45:50;;;;;;;;;;;;;;;13.37;83.08;100615.06;5089369;28;19924;-70
2021/04/21 06:48:16;;;;;;;;;;;;;;;13.26;77.77;100619.78;5090230;28;19997;-70
2021/04/21 06:50:42;;;;;;;;;;;;;;;12.99;75.65;100614.03;5090717;28;19924;-69
2021/04/21 06:53:11;;;;;;;;;;;;;;;13.15;74.31;100624.38;5088987;28;20013;-69
2021/04/21 06:55:37;;;;;;;;;;;;;;;13.32;75.66;100613.72;5088546;28;19977;-69
2021/04/21 06:58:16;;;;;;;;;;;;;;;13.46;68.91;100618.78;5090766;28;20023;-69
2021/04/21 07:00:41;;;;;;;;;;;;;;;13.72;67.57;100623.59;5089223;28;19935;-70
2021/04/21 07:03:07;;;;;;;;;;;;;;;13.93;64.42;100620.66;5089992;28;19952;-70
2021/04/21 07:05:36;;;;;;;;;;;;;;;14.34;63.52;100629.38;5089861;28;19924;-70
2021/04/21 07:08:06;;;;;;;;;;;;;;;14.59;62.54;100621.50;5089998;28;19924;-70
2021/04/21 07:10:33;;;;;;;;;;;;;;;14.92;59.99;100621.00;5090570;28;19924;-70
2021/04/21 07:13:00;;;;;;;;;;;;;;;14.99;58.13;100622.97;5081040;28;19932;-70
2021/04/21 07:15:26;;;;;;;;;;;;;;;15.29;55.64;100623.56;5088250;28;20441;-70
2021/04/21 07:17:53;;;;;;;;;;;;;;;15.56;55.09;100614.34;5090497;28;20037;-70
2021/04/21 07:20:19;;;;;;;;;;;;;;;15.75;54.15;100620.66;5089982;28;19977;-70
2021/04/21 07:22:45;;;;;;;;;;;;;;;16.16;51.69;100612.69;5090135;28;19928;-70
2021/04/21 07:25:13;;;;;;;;;;;;;;;16.76;50.59;100620.97;5089081;28;19931;-71
2021/04/21 07:27:39;;;;;;;;;;;;;;;16.55;51.35;100614.91;5090037;28;20429;-69
2021/04/21 07:30:06;;;;;;;;;;;;;;;16.36;48.63;100623.41;5075761;28;19971;-70
2021/04/21 07:32:42;;;;;;;;;;;;;;;16.66;49.75;100618.34;5092160;28;19928;-70
2021/04/21 07:35:09;;;;;;;;;;;;;;;17.11;47.95;100619.00;5093597;28;19931;-70
2021/04/21 07:37:35;;;;;;;;;;;;;;;16.66;47.40;100615.63;5093656;28;19967;-69
2021/04/21 07:40:01;;;;;;;;;;;;;;;16.60;45.88;100616.28;5110053;28;19924;-70
2021/04/21 07:42:33;;;;;;;;;;;;;;;17.00;46.17;100614.69;5093627;28;19931;-69
2021/04/21 07:45:00;;;;;;;;;;;;;;;17.53;44.85;100607.84;5092831;28;19924;-70
2021/04/21 07:47:26;;;;;;;;;;;;;;;17.58;43.58;100607.31;5093564;28;19924;-70
2021/04/21 07:49:56;;;;;;;;;;;;;;;17.44;43.90;100594.28;5093720;28;20097;-69
2021/04/21 07:52:23;;;;;;;;;;;;;;;17.82;41.91;100611.88;5093104;28;20391;-70
2021/04/21 07:54:48;;;;;;;;;;;;;;;17.07;41.51;100608.34;5092846;28;19932;-70
2021/04/21 07:57:18;;;;;;;;;;;;;;;16.88;40.63;100604.00;5092776;28;20421;-70
2021/04/21 07:59:44;;;;;;;;;;;;;;;17.80;41.78;100610.34;5093573;28;19931;-70
2021/04/21 08:02:20;;;;;;;;;;;;;;;17.87;40.21;100604.00;5093081;28;20031;-70
2021/04/21 08:04:56;;;;;;;;;;;;;;;18.42;38.46;100604.16;5092258;28;19931;-70
2021/04/21 08:07:37;;;;;;;;;;;;;;;18.86;38.07;100597.22;5083122;28;19924;-70
2021/04/21 08:10:06;;;;;;;;;;;;;;;19.44;36.76;100605.91;5074452;28;19924;-70
2021/04/21 08:12:34;;;;;;;;;;;;;;;19.53;35.40;100596.50;5092596;28;19924;-70
2021/04/21 08:15:01;;;;;;;;;;;;;;;19.10;34.70;100601.72;5092521;28;19930;-70
2021/04/21 08:17:27;;;;;;;;;;;;;;;19.06;34.81;100603.13;5091919;28;19928;-70
2021/04/21 08:19:54;;;;;;;;;;;;;;;19.99;35.50;100597.44;5092851;28;19932;-70
2021/04/21 08:22:24;;;;;;;;;;;;;;;20.42;33.77;100592.13;5092285;28;19931;-69
2021/04/21 08:24:50;;;;;;;;;;;;;;;20.65;33.52;100593.88;5092271;28;19984;-69
2021/04/21 08:27:17;;;;;;;;;;;;;;;20.69;33.08;100593.31;5059646;28;20391;-69
2021/04/21 08:29:44;;;;;;;;;;;;;;;20.78;31.78;100598.69;5092005;28;19935;-69
2021/04/21 08:32:10;;;;;;;;;;;;;;;20.01;33.55;100587.97;5092937;28;20083;-69
2021/04/21 08:34:36;;;;;;;;;;;;;;;20.38;31.32;100591.63;5091868;28;20015;-69
2021/04/21 08:37:02;;;;;;;;;;;;;;;19.97;31.26;100594.03;5092697;28;20257;-68
2021/04/21 08:39:28;;;;;;;;;;;;;;;20.49;31.54;100595.78;5091768;28;19955;-69
2021/04/21 08:41:57;;;;;;;;;;;;;;;20.82;31.86;100605.56;5090817;28;19957;-68
2021/04/21 08:44:24;;;;;;;;;;;;;;;20.63;31.58;100602.34;5091559;28;19959;-68
2021/04/21 08:46:50;;;;;;;;;;;;;;;21.23;30.77;100605.75;5092456;28;19973;-68
2021/04/21 08:49:17;;;;;;;;;;;;;;;20.96;31.19;100607.38;5092085;28;20449;-68
2021/04/21 08:51:43;;;;;;;;;;;;;;;20.67;30.66;100606.41;5092470;28;19932;-68
2021/04/21 08:54:12;;;;;;;;;;;;;;;21.29;31.04;100606.88;5090995;28;19931;-68
2021/04/21 08:56:40;;;;;;;;;;;;;;;21.09;30.16;100603.06;5092234;28;20012;-68
2021/04/21 08:59:07;;;;;;;;;;;;;;;21.44;30.30;100601.25;5092147;28;19932;-68
2021/04/21 09:01:34;;;;;;;;;;;;;;;21.66;29.27;100604.00;5092197;28;19924;-68
2021/04/21 09:04:00;;;;;;;;;;;;;;;21.12;29.10;100605.44;5091196;28;19924;-68
2021/04/21 09:06:25;;;;;;;;;;;;;;;21.07;30.53;100598.59;5091609;28;19925;-68
2021/04/21 09:08:52;;;;;;;;;;;;;;;20.97;30.40;100594.47;5092152;28;19985;-69
2021/04/21 09:11:18;;;;;;;;;;;;;;;20.99;30.50;100595.97;5092315;28;19967;-69
2021/04/21 09:13:45;;;;;;;;;;;;;;;21.26;29.86;100598.13;5091418;28;20031;-68
2021/04/21 09:16:11;;;;;;;;;;;;;;;21.34;30.30;100586.94;5091898;28;19994;-69
2021/04/21 09:18:37;;;;;;;;;;;;;;;21.37;30.95;100587.41;5092005;28;19924;-70
2021/04/21 09:21:04;;;;;;;;;;;;;;;21.13;29.83;100585.91;5091531;28;19951;-70
2021/04/21 09:23:37;;;;;;;;;;;;;;;21.09;30.03;100590.13;5091281;28;19977;-69
2021/04/21 09:26:12;;;;;;;;;;;;;;;22.04;29.26;100585.13;5091374;28;19935;-68
2021/04/21 09:28:40;;;;;;;;;;;;;;;21.69;29.73;100585.13;5091802;28;19924;-69
2021/04/21 09:31:11;;;;;;;;;;;;;;;21.20;29.42;100580.47;5091646;28;19924;-68
2021/04/21 09:33:37;;;;;;;;;;;;;;;21.39;29.29;100590.84;5090689;28;20529;-68
2021/04/21 09:36:03;;;;;;;;;;;;;;;21.65;29.83;100575.56;5091491;28;19943;-68
2021/04/21 09:38:29;;;;;;;;;;;;;;;21.31;29.61;100584.59;5090821;28;19955;-68
2021/04/21 09:40:57;;;;;;;;;;;;;;;21.78;30.10;100568.41;5091940;28;19924;-68
2021/04/21 09:43:24;;;;;;;;;;;;;;;21.29;28.59;100579.28;5090810;28;19932;-69
2021/04/21 09:45:51;;;;;;;;;;;;;;;22.14;30.03;100573.72;5089905;28;20341;-69
2021/04/21 09:48:18;;;;;;;;;;;;;;;21.61;28.36;100574.25;5091263;28;20013;-69
2021/04/21 09:50:45;;;;;;;;;;;;;;;20.81;29.24;100568.84;5072812;28;20585;-68
2021/04/21 09:53:18;;;;;;;;;;;;;;;20.95;30.37;100580.00;5090933;28;19925;-69
2021/04/21 09:55:56;;;;;;;;;;;;;;;21.36;30.21;100568.28;5089865;28;19936;-68
2021/04/21 09:58:29;;;;;;;;;;;;;;;21.33;29.16;100571.44;5090411;28;19940;-70
2021/04/21 10:00:55;;;;;;;;;;;;;;;21.24;27.81;100560.56;5089011;28;19925;-68
2021/04/21 10:03:22;;;;;;;;;;;;;;;21.47;28.84;100556.72;5090877;28;19924;-67
2021/04/21 10:05:48;;;;;;;;;;;;;;;20.98;29.21;100566.69;5090779;28;19931;-68
2021/04/21 10:08:15;;;;;;;;;;;;;;;21.26;29.68;100560.34;5091394;28;19928;-68
2021/04/21 10:10:42;;;;;;;;;;;;;;;21.35;28.32;100561.03;5091027;28;20436;-68
2021/04/21 10:13:18;;;;;;;;;;;;;;;21.47;28.89;100553.06;5089785;28;19928;-68
2021/04/21 10:15:43;;;;;;;;;;;;;;;19.89;29.76;100565.53;5070555;28;19933;-68
2021/04/21 10:18:11;;;;;;;;;;;;;;;20.00;30.13;100564.22;5086924;28;19970;-68
2021/04/21 10:20:38;;;;;;;;;;;;;;;20.32;30.06;100559.31;5090890;28;20373;-67
2021/04/21 10:23:06;;;;;;;;;;;;;;;20.69;29.69;100548.34;5090218;28;19924;-67
2021/04/21 10:25:33;;;;;;;;;;;;;;;21.12;29.86;100561.28;5090601;28;19928;-67
2021/04/21 10:27:59;;;;;;;;;;;;;;;20.93;31.59;100554.53;5089945;28;20348;-67
2021/04/21 10:30:25;;;;;;;;;;;;;;;21.47;30.28;100551.19;5090250;28;19932;-67
2021/04/21 10:32:52;;;;;;;;;;;;;;;21.20;31.23;100561.97;5090028;28;19928;-68
2021/04/21 10:35:18;;;;;;;;;;;;;;;19.75;32.10;100549.84;5071083;28;20033;-68
2021/04/21 10:37:45;;;;;;;;;;;;;;;18.27;35.27;100554.63;5090638;28;20340;-68
2021/04/21 10:40:11;;;;;;;;;;;;;;;18.04;37.71;100555.41;5077843;28;19959;-67
2021/04/21 10:42:47;;;;;;;;;;;;;;;17.61;37.07;100554.84;5090007;28;19947;-68
2021/04/21 10:45:14;;;;;;;;;;;;;;;17.42;36.25;100547.81;5090419;28;19939;-68
2021/04/21 10:47:44;;;;;;;;;;;;;;;16.88;35.00;100554.66;5072198;28;20412;-67
2021/04/21 10:50:11;;;;;;;;;;;;;;;16.88;37.08;100556.56;5090734;28;19982;-67
2021/04/21 10:52:38;;;;;;;;;;;;;;;16.65;37.40;100553.59;5071540;28;19968;-68
2021/04/21 10:55:22;;;;;;;;;;;;;;;16.52;38.52;100554.97;5090367;28;19924;-69
2021/04/21 10:57:56;;;;;;;;;;;;;;;16.50;38.57;100556.16;5105215;28;19928;-68
2021/04/21 11:00:25;;;;;;;;;;;;;;;16.53;39.39;100556.69;5090582;28;19924;-68
2021/04/21 11:02:59;;;;;;;;;;;;;;;17.31;34.95;100540.81;5090387;28;19924;-68
2021/04/21 11:05:42;;;;;;;;;;;;;;;18.63;33.39;100540.31;5094099;28;19924;-68
2021/04/21 11:08:09;;;;;;;;;;;;;;;19.84;34.04;100546.00;5094298;28;19990;-68
2021/04/21 11:10:39;;;;;;;;;;;;;;;20.70;31.49;100536.25;5094563;28;19924;-68
2021/04/21 11:13:06;;;;;;;;;;;;;;;19.50;35.00;100547.34;5093983;28;19940;-68
2021/04/21 11:15:39;;;;;;;;;;;;;;;18.88;32.77;100546.53;5094331;28;19928;-68
2021/04/21 11:18:15;;;;;;;;;;;;;;;18.24;34.15;100546.75;5094618;28;20011;-68
2021/04/21 11:20:50;;;;;;;;;;;;;;;17.55;34.47;100550.88;5093890;28;19981;-69
2021/04/21 11:23:30;;;;;;;;;;;;;;;17.43;34.31;100549.53;5093546;28;19931;-69
2021/04/21 11:26:11;;;;;;;;;;;;;;;17.51;36.18;100548.66;5092871;28;20371;-69
2021/04/21 11:28:56;;;;;;;;;;;;;;;17.69;35.31;100545.69;5093014;28;19931;-69
2021/04/21 11:31:23;;;;;;;;;;;;;;;18.51;33.61;100544.53;5093831;28;20294;-69
2021/04/21 11:33:52;;;;;;;;;;;;;;;19.34;33.98;100540.13;5093718;28;20213;-69
2021/04/21 11:36:37;;;;;;;;;;;;;;;19.09;34.11;100547.72;5093770;28;19948;-69
2021/04/21 11:39:03;;;;;;;;;;;;;;;18.66;33.94;100547.34;5073405;28;20049;-69
2021/04/21 11:41:38;;;;;;;;;;;;;;;18.99;34.00;100544.41;5086163;28;19968;-70
2021/04/21 11:44:05;;;;;;;;;;;;;;;19.24;34.05;100539.50;5093581;28;19924;-69
2021/04/21 11:46:49;;;;;;;;;;;;;;;19.67;32.78;100549.91;5093059;28;20302;-69
2021/04/21 11:49:44;;;;;;;;;;;;;;;20.12;33.20;100537.03;5093708;28;19963;-69
2021/04/21 11:52:31;;;;;;;;;;;;;;;20.79;33.36;100540.59;5091558;28;20005;-69
2021/04/21 11:54:58;;;;;;;;;;;;;;;21.33;31.25;100533.66;5093379;28;19977;-69
2021/04/21 11:57:24;;;;;;;;;;;;;;;21.27;31.25;100533.59;5093142;28;20023;-68
2021/04/21 11:59:49;;;;;;;;;;;;;;;20.99;31.27;100532.53;5092628;28;19928;-69
2021/04/21 12:02:16;;;;;;;;;;;;;;;20.21;32.51;100535.88;5093214;28;19931;-68
2021/04/21 12:04:42;;;;;;;;;;;;;;;19.67;34.17;100537.03;5093155;28;19924;-68
2021/04/21 12:07:08;;;;;;;;;;;;;;;20.13;32.50;100532.38;5092949;28;19924;-69
2021/04/21 12:09:35;;;;;;;;;;;;;;;19.64;33.03;100522.78;5093321;28;20059;-70
2021/04/21 12:12:01;;;;;;;;;;;;;;;20.24;33.43;100532.75;5092808;28;19925;-70
2021/04/21 12:14:27;;;;;;;;;;;;;;;20.05;33.25;100528.66;5073180;28;19924;-68
2021/04/21 12:16:53;;;;;;;;;;;;;;;21.07;33.15;100526.00;5091998;28;19966;-69
2021/04/21 12:19:19;;;;;;;;;;;;;;;22.04;32.12;100509.69;5092797;28;20391;-69
2021/04/21 12:21:45;;;;;;;;;;;;;;;22.06;31.26;100515.84;5092726;28;19928;-69
2021/04/21 12:24:11;;;;;;;;;;;;;;;21.80;29.61;100509.13;5092028;28;20372;-69
2021/04/21 12:26:37;;;;;;;;;;;;;;;20.61;32.42;100515.34;5074418;28;19924;-70
2021/04/21 12:29:06;;;;;;;;;;;;;;;19.38;34.20;100532.34;5092795;28;20262;-70
2021/04/21 12:31:32;;;;;;;;;;;;;;;18.67;35.45;100521.59;5090328;28;19981;-70
2021/04/21 12:33:59;;;;;;;;;;;;;;;18.40;36.33;100513.66;5092099;28;19928;-69
2021/04/21 12:36:26;;;;;;;;;;;;;;;17.55;36.59;100520.69;5074431;28;19927;-69
2021/04/21 12:38:59;;;;;;;;;;;;;;;17.35;36.80;100519.38;5092957;28;19925;-69
2021/04/21 12:41:25;;;;;;;;;;;;;;;17.09;37.94;100520.44;5091936;28;19939;-69
2021/04/21 12:43:51;;;;;;;;;;;;;;;17.06;37.30;100510.69;5091672;28;19931;-69
2021/04/21 12:46:19;;;;;;;;;;;;;;;17.13;39.40;100513.59;5092504;28;19933;-70
2021/04/21 12:48:46;;;;;;;;;;;;;;;16.97;37.23;100508.09;5091769;28;19960;-69